Time;durP1;ratioP1;P1;durP2;ratioP2;P2;SDS_P1;SDS_P2;PMS_P1;PMS_P2;Temp;Humidity;BMP_temperature;BMP_pressure;BME280_temperature;BME280_humidity;BME280_pressure;Samples;Min_cycle;Max_cycle;Signal;HPM_P1;HPM_P2
2022/10/17 00:00:04;;;;;;;25.33;14.77;;;11.00;99.90;;;;;;4769443;30;20035;-76
2022/10/17 00:02:31;;;;;;;24.73;15.45;;;11.00;99.90;;;;;;4770213;30;20040;-76
2022/10/17 00:04:56;;;;;;;29.95;19.50;;;10.90;99.90;;;;;;4769841;30;20036;-75
2022/10/17 00:07:22;;;;;;;24.48;14.63;;;10.90;99.90;;;;;;4768758;30;20073;-75
2022/10/17 00:09:48;;;;;;;23.52;13.25;;;10.90;99.90;;;;;;4770054;30;20559;-74
2022/10/17 00:12:14;;;;;;;19.60;13.15;;;10.70;99.90;;;;;;4770361;30;20024;-76
2022/10/17 00:14:39;;;;;;;19.80;13.55;;;10.60;99.90;;;;;;4769948;30;20050;-76
2022/10/17 00:17:05;;;;;;;22.40;13.27;;;10.70;99.90;;;;;;4770204;30;20097;-75
2022/10/17 00:19:31;;;;;;;25.95;14.63;;;10.60;99.90;;;;;;4771213;30;20020;-75
2022/10/17 00:21:57;;;;;;;21.38;13.45;;;10.60;99.90;;;;;;4770024;30;20377;-73
2022/10/17 00:24:23;;;;;;;22.27;13.88;;;10.60;99.90;;;;;;4769877;30;20027;-75
2022/10/17 00:26:49;;;;;;;20.52;13.65;;;10.70;99.90;;;;;;4769996;30;20044;-74
2022/10/17 00:29:14;;;;;;;26.08;13.88;;;10.60;99.90;;;;;;4769809;30;20040;-75
2022/10/17 00:31:40;;;;;;;23.17;14.70;;;10.60;99.90;;;;;;4769597;30;20094;-75
2022/10/17 00:34:06;;;;;;;24.15;13.50;;;10.70;99.90;;;;;;4767314;30;20094;-75
2022/10/17 00:36:33;;;;;;;26.02;16.33;;;10.70;99.90;;;;;;4767867;30;20399;-75
2022/10/17 00:38:59;;;;;;;25.75;15.35;;;10.70;99.90;;;;;;4769821;30;20032;-73
2022/10/17 00:41:29;;;;;;;33.20;20.88;;;10.60;99.90;;;;;;4769662;30;20392;-74
2022/10/17 00:44:25;;;;;;;29.70;20.48;;;10.60;99.90;;;;;;4753716;30;20024;-76
2022/10/17 00:46:52;;;;;;;25.67;12.73;;;10.60;99.90;;;;;;4769778;30;20044;-75
2022/10/17 00:49:19;;;;;;;21.45;12.75;;;10.60;99.90;;;;;;4769687;30;20028;-76
2022/10/17 00:51:59;;;;;;;25.25;13.75;;;10.60;99.90;;;;;;4738504;30;20562;-75
2022/10/17 00:54:31;;;;;;;19.00;12.70;;;10.60;99.90;;;;;;4753308;30;20031;-75
2022/10/17 00:56:58;;;;;;;24.67;14.18;;;10.60;99.90;;;;;;4769473;30;20058;-75
2022/10/17 00:59:27;;;;;;;19.55;13.18;;;10.60;99.90;;;;;;4753340;30;20028;-75
2022/10/17 01:01:59;;;;;;;22.83;12.13;;;10.70;99.90;;;;;;4752821;30;20050;-74
2022/10/17 01:04:25;;;;;;;24.00;13.55;;;10.60;99.90;;;;;;4769309;30;20031;-74
2022/10/17 01:06:51;;;;;;;21.38;13.48;;;10.70;99.90;;;;;;4767335;30;20047;-74
2022/10/17 01:09:17;;;;;;;23.23;14.93;;;10.70;99.90;;;;;;4769333;30;20027;-73
2022/10/17 01:12:04;;;;;;;25.38;15.57;;;10.70;99.90;;;;;;4753305;30;20035;-75
2022/10/17 01:14:39;;;;;;;25.73;15.32;;;10.70;99.90;;;;;;4744708;30;20066;-74
2022/10/17 01:17:45;;;;;;;20.45;14.13;;;10.70;99.90;;;;;;4769133;30;20357;-73
2022/10/17 01:20:11;;;;;;;;;;;10.70;99.90;;;;;;4768084;30;20498;-75
2022/10/17 01:22:50;;;;;;;24.83;14.60;;;10.60;99.90;;;;;;4769055;30;19910;-74
2022/10/17 01:25:40;;;;;;;20.95;13.25;;;10.60;99.90;;;;;;4769022;30;20114;-73
2022/10/17 01:28:34;;;;;;;24.58;13.88;;;10.60;99.90;;;;;;4769152;30;20097;-74
2022/10/17 01:31:06;;;;;;;;;;;10.60;99.90;;;;;;4767762;30;20067;-73
2022/10/17 01:33:41;;;;;;;30.35;14.52;;;10.50;99.90;;;;;;4767541;30;19944;-72
2022/10/17 01:36:10;;;;;;;28.45;16.33;;;10.40;99.90;;;;;;4768445;30;20032;-72
2022/10/17 01:38:46;;;;;;;29.55;16.35;;;10.40;99.90;;;;;;4759017;30;20039;-72
2022/10/17 01:41:34;;;;;;;21.25;12.55;;;10.40;99.90;;;;;;4765120;30;20039;-71
2022/10/17 01:44:09;;;;;;;21.60;13.07;;;10.40;99.90;;;;;;4766704;30;20732;-74
2022/10/17 01:46:40;;;;;;;24.67;13.70;;;10.40;99.90;;;;;;4768388;30;20052;-74
2022/10/17 01:49:09;;;;;;;22.63;14.55;;;10.40;99.90;;;;;;4752539;30;20027;-71
2022/10/17 01:51:41;;;;;;;21.63;13.07;;;10.40;99.90;;;;;;4752306;30;20113;-72
2022/10/17 01:54:22;;;;;;;20.13;13.18;;;10.40;99.90;;;;;;4752701;30;20024;-73
2022/10/17 01:56:54;;;;;;;20.88;13.15;;;10.40;99.90;;;;;;4767104;30;20051;-71
2022/10/17 01:59:24;;;;;;;24.50;13.87;;;10.30;99.90;;;;;;4768108;30;20028;-71
2022/10/17 02:01:54;;;;;;;19.52;12.82;;;10.40;99.90;;;;;;4767095;30;20291;-72
2022/10/17 02:04:22;;;;;;;20.60;13.20;;;10.40;99.90;;;;;;4748849;30;20503;-72
2022/10/17 02:06:47;;;;;;;25.13;13.52;;;10.40;99.90;;;;;;4768140;30;20098;-71
2022/10/17 02:09:21;;;;;;;24.67;14.70;;;10.40;99.90;;;;;;4751770;30;20028;-74
2022/10/17 02:11:51;;;;;;;23.73;13.10;;;10.30;99.90;;;;;;4767685;30;20483;-74
2022/10/17 02:14:31;;;;;;;21.92;13.55;;;10.30;99.90;;;;;;4766598;30;20027;-75
2022/10/17 02:17:02;;;;;;;27.90;15.00;;;10.20;99.90;;;;;;4767067;30;20035;-73
2022/10/17 02:19:43;;;;;;;22.65;15.00;;;10.20;99.90;;;;;;4766871;30;20039;-73
2022/10/17 02:22:34;;;;;;;28.45;18.58;;;10.10;99.90;;;;;;4766929;30;20042;-75
2022/10/17 02:25:26;;;;;;;21.98;13.20;;;10.10;99.90;;;;;;4768102;30;20081;-75
2022/10/17 02:28:16;;;;;;;21.55;13.00;;;10.10;99.90;;;;;;4766618;30;20040;-75
2022/10/17 02:30:53;;;;;;;20.90;12.82;;;10.10;99.90;;;;;;4695592;30;20057;-74
2022/10/17 02:33:33;;;;;;;20.55;11.68;;;10.10;99.90;;;;;;4695738;30;20053;-74
2022/10/17 02:36:03;;;;;;;21.63;14.18;;;10.10;99.90;;;;;;4695854;30;20046;-76
2022/10/17 02:38:31;;;;;;;23.73;14.48;;;9.90;99.90;;;;;;4695821;30;20370;-74
2022/10/17 02:40:57;;;;;;;27.90;14.07;;;9.90;99.90;;;;;;4695534;30;20045;-74
2022/10/17 02:43:24;;;;;;;18.75;12.20;;;10.00;99.90;;;;;;4695581;30;20050;-74
2022/10/17 02:45:52;;;;;;;20.20;12.35;;;10.00;99.90;;;;;;4695623;30;20066;-74
2022/10/17 02:48:37;;;;;;;22.67;13.55;;;10.10;99.90;;;;;;4695754;30;20226;-75
2022/10/17 02:51:21;;;;;;;18.75;11.80;;;10.10;99.90;;;;;;4693527;30;20033;-74
2022/10/17 02:54:14;;;;;;;20.48;12.82;;;10.10;99.90;;;;;;4695708;30;20045;-73
2022/10/17 02:56:46;;;;;;;22.67;13.38;;;10.00;99.90;;;;;;4681321;30;20038;-74
2022/10/17 02:59:16;;;;;;;21.92;13.32;;;10.00;99.90;;;;;;4681404;30;20725;-73
2022/10/17 03:01:43;;;;;;;19.52;13.07;;;9.90;99.90;;;;;;4695267;30;20056;-73
2022/10/17 03:04:11;;;;;;;19.45;12.63;;;9.90;99.90;;;;;;4695456;30;20037;-73
2022/10/17 03:06:38;;;;;;;20.45;13.55;;;9.90;99.90;;;;;;4682380;30;20084;-74
2022/10/17 03:09:05;;;;;;;20.45;12.50;;;9.90;99.90;;;;;;4748891;30;20025;-74
2022/10/17 03:11:31;;;;;;;25.70;12.18;;;9.90;99.90;;;;;;4745081;30;20044;-75
2022/10/17 03:13:57;;;;;;;20.83;12.55;;;9.80;99.90;;;;;;4748483;30;20034;-73
2022/10/17 03:16:23;;;;;;;19.63;11.90;;;9.80;99.90;;;;;;4733493;30;20044;-73
2022/10/17 03:18:48;;;;;;;22.05;12.93;;;9.70;99.90;;;;;;4749951;30;20488;-74
2022/10/17 03:21:14;;;;;;;19.55;12.70;;;9.70;99.90;;;;;;4733843;30;20377;-74
2022/10/17 03:23:41;;;;;;;22.08;14.00;;;9.70;99.90;;;;;;4749882;30;20085;-74
2022/10/17 03:26:07;;;;;;;26.80;15.65;;;9.70;99.90;;;;;;4734970;30;20044;-74
2022/10/17 03:28:34;;;;;;;20.98;14.30;;;9.70;99.90;;;;;;4748248;30;20036;-74
2022/10/17 03:31:06;;;;;;;21.88;14.20;;;9.60;99.90;;;;;;4738587;30;20488;-75
2022/10/17 03:33:32;;;;;;;27.95;15.32;;;9.60;99.90;;;;;;4754597;30;20039;-74
2022/10/17 03:35:58;;;;;;;24.60;14.55;;;9.60;99.90;;;;;;4770615;30;20376;-74
2022/10/17 03:38:24;;;;;;;25.95;14.70;;;9.50;99.90;;;;;;4770926;30;20169;-74
2022/10/17 03:40:55;;;;;;;23.25;15.10;;;9.50;99.90;;;;;;4769264;30;20028;-73
2022/10/17 03:43:21;;;;;;;22.42;14.45;;;9.40;99.90;;;;;;4754487;30;20028;-75
2022/10/17 03:45:47;;;;;;;24.25;15.90;;;9.40;99.90;;;;;;4769070;30;20031;-73
2022/10/17 03:48:12;;;;;;;27.33;17.98;;;9.40;99.90;;;;;;4770499;30;20531;-74
2022/10/17 03:50:38;;;;;;;27.15;16.05;;;9.30;99.90;;;;;;4770504;30;20500;-75
2022/10/17 03:53:04;;;;;;;23.85;13.70;;;9.30;99.90;;;;;;4769006;30;20063;-74
2022/10/17 03:55:30;;;;;;;26.13;16.05;;;9.30;99.90;;;;;;4754739;30;20057;-74
2022/10/17 03:57:56;;;;;;;22.02;14.80;;;9.30;99.90;;;;;;4753724;30;20067;-73
2022/10/17 04:00:22;;;;;;;26.02;16.00;;;9.40;99.90;;;;;;4768577;30;20035;-74
2022/10/17 04:02:54;;;;;;;24.02;15.10;;;9.30;99.90;;;;;;4768671;30;20036;-74
2022/10/17 04:05:20;;;;;;;21.10;15.55;;;9.40;99.90;;;;;;4769121;30;20089;-75
2022/10/17 04:07:47;;;;;;;27.55;14.60;;;9.40;99.90;;;;;;4753253;30;20040;-73
2022/10/17 04:10:15;;;;;;;24.95;14.07;;;9.40;99.90;;;;;;4768794;30;20376;-73
2022/10/17 04:12:41;;;;;;;22.70;12.60;;;9.40;99.90;;;;;;4768387;30;20032;-74
2022/10/17 04:15:08;;;;;;;22.20;13.27;;;9.40;99.90;;;;;;4768132;30;20553;-74
2022/10/17 04:17:34;;;;;;;24.40;16.88;;;9.50;99.90;;;;;;4768276;30;20040;-73
2022/10/17 04:20:00;;;;;;;28.67;18.10;;;9.50;99.90;;;;;;4767942;30;20035;-74
2022/10/17 04:22:26;;;;;;;33.95;19.13;;;9.50;99.90;;;;;;4753389;30;20546;-73
2022/10/17 04:25:01;;;;;;;28.13;18.80;;;9.50;99.90;;;;;;4770132;30;21843;-72
2022/10/17 04:27:56;;;;;;;34.95;14.43;;;9.50;99.90;;;;;;4731853;30;20049;-73
2022/10/17 04:30:22;;;;;;;20.52;14.93;;;9.50;99.90;;;;;;4704968;30;20040;-75
2022/10/17 04:32:49;;;;;;;23.40;13.13;;;9.40;99.90;;;;;;4712693;30;20044;-75
2022/10/17 04:35:24;;;;;;;42.92;23.48;;;9.40;99.90;;;;;;4732434;30;20479;-74
2022/10/17 04:37:57;;;;;;;29.02;16.67;;;9.30;99.90;;;;;;4750923;24;20082;-73
2022/10/17 04:40:24;;;;;;;34.03;20.17;;;9.30;99.90;;;;;;4752777;29;20039;-74
2022/10/17 04:42:52;;;;;;;38.17;21.48;;;9.40;99.90;;;;;;4768356;29;20197;-74
2022/10/17 04:45:20;;;;;;;21.23;13.05;;;9.40;99.90;;;;;;4767907;29;20513;-74
2022/10/17 04:47:50;;;;;;;25.13;13.30;;;9.30;99.90;;;;;;4753200;29;20377;-74
2022/10/17 04:50:16;;;;;;;23.20;12.95;;;9.30;99.90;;;;;;4752732;30;20038;-74
2022/10/17 04:52:51;;;;;;;20.38;12.27;;;9.20;99.90;;;;;;4769219;29;20063;-74
2022/10/17 04:55:20;;;;;;;19.83;11.60;;;9.10;99.90;;;;;;4770496;29;20067;-74
2022/10/17 04:58:06;;;;;;;19.65;12.10;;;9.00;99.90;;;;;;4766821;24;20434;-74
2022/10/17 05:00:32;;;;;;;24.05;12.25;;;9.00;99.90;;;;;;4735414;30;20133;-74
2022/10/17 05:05:40;;;;;;;24.52;12.20;;;9.10;99.90;;;;;;4730859;30;20369;-74
2022/10/17 05:08:08;;;;;;;20.15;13.45;;;9.20;99.90;;;;;;4717344;30;20056;-74
2022/10/17 05:10:42;;;;;;;24.60;13.52;;;9.20;99.90;;;;;;4731750;30;20051;-74
2022/10/17 05:13:08;;;;;;;32.90;18.85;;;9.20;99.90;;;;;;4717240;30;20040;-73
2022/10/17 05:15:36;;;;;;;67.03;41.67;;;9.20;99.90;;;;;;4732053;30;20037;-73
2022/10/17 05:18:03;;;;;;;39.17;21.95;;;9.80;99.90;;;;;;4717288;30;20032;-74
2022/10/17 05:20:30;;;;;;;25.13;13.00;;;10.30;99.90;;;;;;4717409;30;20083;-75
2022/10/17 05:22:58;;;;;;;33.38;13.75;;;10.70;99.90;;;;;;4733374;30;20056;-74
2022/10/17 05:25:27;;;;;;;23.85;13.70;;;11.00;99.90;;;;;;4731987;30;20060;-74
2022/10/17 05:27:53;;;;;;;56.78;33.05;;;11.50;99.90;;;;;;4716924;30;20137;-74
2022/10/17 05:30:19;;;;;;;31.38;17.40;;;12.00;99.90;;;;;;4717830;30;20029;-74
2022/10/17 05:32:45;;;;;;;27.63;16.08;;;12.40;99.90;;;;;;4731577;30;20037;-74
2022/10/17 05:35:11;;;;;;;20.27;12.18;;;12.80;99.90;;;;;;4732218;30;20553;-74
2022/10/17 05:37:37;;;;;;;16.48;9.95;;;13.00;99.90;;;;;;4733137;30;20047;-74
2022/10/17 05:40:05;;;;;;;19.20;12.38;;;12.80;99.90;;;;;;4728497;30;20449;-74
2022/10/17 05:42:30;;;;;;;23.27;12.35;;;13.10;99.90;;;;;;4733240;30;20028;-74
2022/10/17 05:44:57;;;;;;;21.80;12.35;;;13.30;99.90;;;;;;4731885;30;20047;-73
2022/10/17 05:47:25;;;;;;;23.10;12.60;;;13.00;99.90;;;;;;4703068;30;20059;-74
2022/10/17 05:49:50;;;;;;;24.33;12.48;;;11.90;99.90;;;;;;4729582;30;20447;-74
2022/10/17 05:52:17;;;;;;;24.00;13.25;;;11.20;99.90;;;;;;4714650;30;20086;-73
2022/10/17 05:54:59;;;;;;;;;;;11.00;99.90;;;;;;4727133;30;20048;-74
2022/10/17 05:57:26;;;;;;;21.90;13.82;;;11.10;99.90;;;;;;4717380;30;20328;-74
2022/10/17 05:59:52;;;;;;;21.73;14.07;;;11.20;99.90;;;;;;4732860;30;20046;-74
2022/10/17 06:02:20;;;;;;;20.90;12.25;;;11.10;99.90;;;;;;4715336;30;20071;-74
2022/10/17 06:04:48;;;;;;;19.95;10.80;;;11.00;99.90;;;;;;4715349;30;20496;-74
2022/10/17 06:07:14;;;;;;;19.98;11.60;;;11.00;99.90;;;;;;4728159;30;20048;-74
2022/10/17 06:09:42;;;;;;;20.38;12.02;;;11.30;99.90;;;;;;4716294;30;20128;-74
2022/10/17 06:12:09;;;;;;;16.58;10.38;;;11.10;99.90;;;;;;4731423;30;20119;-74
2022/10/17 06:14:35;;;;;;;19.95;12.00;;;11.20;99.90;;;;;;4717187;30;20564;-74
2022/10/17 06:17:03;;;;;;;23.10;11.85;;;11.40;99.90;;;;;;4727809;30;20114;-74
2022/10/17 06:19:29;;;;;;;25.73;11.95;;;11.50;99.90;;;;;;4717954;30;20496;-74
2022/10/17 06:21:55;;;;;;;27.70;12.18;;;11.60;99.90;;;;;;4731563;30;20028;-74
2022/10/17 06:24:23;;;;;;;17.30;9.88;;;11.60;99.90;;;;;;4717095;30;20086;-73
2022/10/17 06:26:51;;;;;;;18.42;9.90;;;11.50;99.90;;;;;;4731516;30;20071;-74
2022/10/17 06:29:19;;;;;;;17.70;9.10;;;11.40;99.90;;;;;;4731394;30;20037;-74
2022/10/17 06:31:47;;;;;;;15.60;8.80;;;11.50;99.90;;;;;;4731096;30;20669;-74
2022/10/17 06:34:14;;;;;;;18.27;10.10;;;11.80;99.90;;;;;;4716651;30;20029;-74
2022/10/17 06:36:40;;;;;;;18.45;9.75;;;11.50;99.90;;;;;;4720934;30;20454;-74
2022/10/17 06:39:07;;;;;;;17.90;9.35;;;11.90;99.90;;;;;;4716355;30;20025;-74
2022/10/17 06:41:40;;;;;;;20.67;10.65;;;12.00;99.90;;;;;;4731129;30;20500;-74
2022/10/17 06:44:10;;;;;;;17.45;9.00;;;12.30;99.90;;;;;;4731313;30;20040;-74
2022/10/17 06:47:10;;;;;;;19.45;8.95;;;12.40;99.90;;;;;;4728832;30;20037;-73
2022/10/17 06:49:36;;;;;;;19.33;9.77;;;12.60;99.90;;;;;;4731391;30;20033;-74
2022/10/17 06:52:17;;;;;;;20.75;11.25;;;12.60;99.90;;;;;;4716690;30;20032;-74
2022/10/17 06:55:02;;;;;;;15.55;9.10;;;12.70;99.90;;;;;;4732444;30;20079;-74
2022/10/17 06:57:40;;;;;;;18.83;9.75;;;12.80;99.90;;;;;;4731065;30;20123;-74
2022/10/17 07:00:39;;;;;;;15.88;8.25;;;13.20;99.90;;;;;;4729838;30;20495;-74
2022/10/17 07:03:04;;;;;;;16.50;8.68;;;13.30;99.90;;;;;;4735618;30;20033;-73
2022/10/17 07:05:30;;;;;;;15.02;8.23;;;13.40;99.90;;;;;;4732931;30;20102;-74
2022/10/17 07:07:56;;;;;;;12.38;7.93;;;13.50;99.90;;;;;;4720057;30;20132;-74
2022/10/17 07:10:22;;;;;;;13.80;8.82;;;13.50;99.90;;;;;;4735531;30;20443;-74
2022/10/17 07:12:48;;;;;;;20.98;10.07;;;13.60;99.90;;;;;;4734779;30;20290;-71
2022/10/17 07:15:14;;;;;;;23.88;8.55;;;13.70;99.90;;;;;;4719447;30;20032;-71
2022/10/17 07:17:40;;;;;;;22.63;8.52;;;13.70;99.90;;;;;;4733733;30;20049;-72
2022/10/17 07:20:07;;;;;;;16.20;9.15;;;13.80;99.90;;;;;;4719518;30;20111;-72
2022/10/17 07:22:34;;;;;;;13.85;8.70;;;13.90;99.90;;;;;;4719329;30;20033;-71
2022/10/17 07:25:01;;;;;;;15.40;8.32;;;13.90;99.90;;;;;;4728009;30;20029;-72
2022/10/17 07:27:35;;;;;;;19.13;8.98;;;14.10;99.90;;;;;;4731274;30;20095;-71
2022/10/17 07:30:01;;;;;;;14.68;8.57;;;14.10;99.90;;;;;;4735781;30;20068;-72
2022/10/17 07:32:36;;;;;;;14.85;8.38;;;14.30;99.90;;;;;;4720875;30;20123;-72
2022/10/17 07:35:04;;;;;;;18.40;9.38;;;14.30;99.90;;;;;;4735278;30;20029;-72
2022/10/17 07:37:30;;;;;;;19.08;8.82;;;14.50;99.90;;;;;;4735429;30;20543;-72
2022/10/17 07:39:58;;;;;;;14.68;9.68;;;14.60;99.90;;;;;;4734418;30;20037;-72
2022/10/17 07:42:24;;;;;;;18.45;10.43;;;14.70;99.90;;;;;;4728336;30;20040;-72
2022/10/17 07:44:52;;;;;;;27.52;10.15;;;14.80;99.90;;;;;;4730951;30;20095;-73
2022/10/17 07:47:20;;;;;;;18.92;10.07;;;14.90;99.90;;;;;;4734968;30;20098;-72
2022/10/17 07:49:46;;;;;;;23.45;9.43;;;14.90;99.90;;;;;;4735286;30;20029;-71
2022/10/17 07:52:14;;;;;;;15.50;8.82;;;14.90;99.90;;;;;;4736629;30;20029;-72
2022/10/17 07:54:40;;;;;;;15.07;7.90;;;15.10;99.90;;;;;;4736056;30;20056;-72
2022/10/17 07:57:06;;;;;;;22.48;9.02;;;15.10;99.90;;;;;;4739330;30;20063;-72
2022/10/17 07:59:33;;;;;;;25.92;11.00;;;15.20;99.90;;;;;;4736525;30;20441;-72
2022/10/17 08:01:59;;;;;;;14.38;8.00;;;15.40;99.90;;;;;;4735168;30;20111;-72
2022/10/17 08:04:26;;;;;;;16.60;8.43;;;15.30;99.90;;;;;;4735676;30;20421;-73
2022/10/17 08:06:52;;;;;;;16.25;9.05;;;15.30;99.90;;;;;;4735822;30;20048;-72
2022/10/17 08:09:19;;;;;;;16.77;7.57;;;15.20;99.90;;;;;;4748630;30;20035;-72
2022/10/17 08:11:44;;;;;;;23.77;10.23;;;15.50;99.90;;;;;;4735904;30;20048;-72
2022/10/17 08:14:12;;;;;;;13.45;8.25;;;15.60;99.90;;;;;;4735373;30;20461;-72
2022/10/17 08:16:38;;;;;;;15.18;8.30;;;15.60;99.90;;;;;;4735987;30;20033;-72
2022/10/17 08:19:04;;;;;;;14.85;7.22;;;15.70;99.90;;;;;;4735870;30;20392;-72
2022/10/17 08:21:30;;;;;;;31.60;11.10;;;15.70;99.90;;;;;;4735784;30;20025;-72
2022/10/17 08:23:56;;;;;;;17.83;8.20;;;15.80;99.90;;;;;;4735821;30;20047;-72
2022/10/17 08:26:22;;;;;;;19.65;9.07;;;16.10;99.90;;;;;;4719601;30;20400;-72
2022/10/17 08:28:48;;;;;;;24.02;10.45;;;16.30;99.90;;;;;;4735265;30;20048;-72
2022/10/17 08:31:18;;;;;;;15.98;7.32;;;16.20;99.90;;;;;;4735555;30;20032;-72
2022/10/17 08:33:45;;;;;;;32.80;14.55;;;16.40;99.90;;;;;;4735724;30;20499;-72
2022/10/17 08:36:13;;;;;;;31.08;11.02;;;16.50;99.90;;;;;;4735294;30;20513;-72
2022/10/17 08:38:41;;;;;;;19.00;8.00;;;16.50;99.90;;;;;;4735421;30;20443;-72
2022/10/17 08:41:45;;;;;;;16.08;8.68;;;16.60;99.90;;;;;;4735298;30;20037;-73
2022/10/17 08:44:16;;;;;;;14.40;7.97;;;16.70;99.90;;;;;;4735485;30;20036;-72
2022/10/17 08:46:45;;;;;;;15.50;7.50;;;16.90;99.90;;;;;;4735254;30;20043;-72
2022/10/17 08:49:23;;;;;;;16.02;9.18;;;16.90;99.90;;;;;;4735542;30;20033;-72
2022/10/17 08:51:58;;;;;;;14.93;8.25;;;17.00;99.90;;;;;;4735184;30;20503;-72
2022/10/17 08:54:41;;;;;;;17.52;9.68;;;16.90;99.90;;;;;;4735314;30;20036;-72
2022/10/17 08:57:12;;;;;;;15.88;7.65;;;17.00;99.90;;;;;;4735436;30;20428;-72
2022/10/17 08:59:38;;;;;;;13.18;6.75;;;17.20;99.90;;;;;;4735245;30;20047;-72
2022/10/17 09:02:26;;;;;;;15.70;7.85;;;17.30;99.90;;;;;;4735033;30;20029;-73
2022/10/17 09:05:16;;;;;;;13.70;7.28;;;17.40;99.90;;;;;;4733930;30;20512;-72
2022/10/17 09:07:46;;;;;;;13.00;6.93;;;17.50;99.90;;;;;;4734842;30;20048;-72
2022/10/17 09:10:25;;;;;;;15.13;7.38;;;17.60;99.90;;;;;;4734625;30;20106;-72
2022/10/17 09:13:13;;;;;;;17.27;7.07;;;17.70;99.90;;;;;;4734839;30;20028;-72
2022/10/17 09:15:50;;;;;;;18.02;7.65;;;17.90;99.90;;;;;;4733331;30;20094;-72
2022/10/17 09:18:32;;;;;;;13.02;6.45;;;17.90;99.90;;;;;;4734686;30;20099;-72
2022/10/17 09:21:13;;;;;;;11.17;6.33;;;17.90;99.90;;;;;;4734761;30;20427;-72
2022/10/17 09:23:54;;;;;;;14.27;6.95;;;17.90;99.90;;;;;;4733578;30;20277;-72
2022/10/17 09:26:21;;;;;;;9.70;5.95;;;18.10;99.90;;;;;;4734265;30;20416;-72
2022/10/17 09:28:58;;;;;;;11.98;5.65;;;18.10;99.90;;;;;;4733819;30;20047;-72
2022/10/17 09:31:25;;;;;;;12.63;6.30;;;18.20;99.90;;;;;;4719054;30;20059;-72
2022/10/17 09:33:54;;;;;;;12.50;6.32;;;18.20;99.90;;;;;;4734337;30;20146;-73
2022/10/17 09:36:24;;;;;;;10.85;5.72;;;18.30;99.90;;;;;;4734514;30;20036;-72
2022/10/17 09:38:59;;;;;;;15.02;5.32;;;18.30;99.90;;;;;;4734310;30;20058;-72
2022/10/17 09:41:38;;;;;;;13.57;6.13;;;18.40;99.90;;;;;;4734549;30;20055;-72
2022/10/17 09:44:18;;;;;;;12.35;6.05;;;18.40;99.90;;;;;;4734251;30;20035;-72
2022/10/17 09:47:11;;;;;;;16.95;6.95;;;18.50;99.90;;;;;;4734281;30;20055;-73
2022/10/17 09:49:39;;;;;;;17.83;5.65;;;18.60;99.90;;;;;;4733880;30;20039;-72
2022/10/17 09:52:23;;;;;;;13.90;5.20;;;18.70;99.90;;;;;;4732921;30;20396;-72
2022/10/17 09:54:59;;;;;;;16.67;5.60;;;18.70;99.90;;;;;;4733615;30;20040;-73
2022/10/17 09:57:25;;;;;;;12.45;5.18;;;18.80;99.90;;;;;;4732853;30;20495;-72
2022/10/17 09:59:59;;;;;;;8.50;4.90;;;18.80;99.90;;;;;;4733510;30;20032;-72
2022/10/17 10:02:27;;;;;;;15.40;5.35;;;18.80;99.90;;;;;;4732895;30;20034;-72
2022/10/17 10:04:57;;;;;;;9.13;4.97;;;19.10;99.90;;;;;;4733252;30;20683;-72
2022/10/17 10:07:38;;;;;;;11.13;5.13;;;19.10;99.90;;;;;;4733933;30;20048;-72
2022/10/17 10:10:07;;;;;;;9.73;5.53;;;19.10;99.90;;;;;;4733688;30;20033;-72
2022/10/17 10:12:36;;;;;;;11.15;5.38;;;19.20;99.90;;;;;;4733785;30;20047;-73
2022/10/17 10:15:39;;;;;;;11.65;5.10;;;19.30;99.90;;;;;;4733889;30;20056;-73
2022/10/17 10:18:24;;;;;;;17.05;5.60;;;19.30;99.90;;;;;;4728580;30;20032;-72
2022/10/17 10:21:06;;;;;;;11.15;5.30;;;19.30;99.90;;;;;;4729506;30;20040;-70
2022/10/17 10:23:32;;;;;;;9.38;4.95;;;19.30;99.90;;;;;;4741237;30;20028;-72
2022/10/17 10:26:01;;;;;;;9.60;5.07;;;19.50;99.90;;;;;;4738134;30;20582;-72
2022/10/17 10:28:31;;;;;;;10.20;5.22;;;19.60;99.90;;;;;;4732344;30;20037;-72
2022/10/17 10:31:08;;;;;;;12.57;5.82;;;19.70;99.90;;;;;;4733145;30;20028;-72
2022/10/17 10:33:39;;;;;;;12.20;5.70;;;19.70;99.90;;;;;;4733275;30;20127;-71
2022/10/17 10:36:06;;;;;;;11.83;4.77;;;19.80;99.90;;;;;;4742530;30;20036;-72
2022/10/17 10:38:34;;;;;;;8.80;4.45;;;19.90;99.90;;;;;;4736922;30;20071;-72
2022/10/17 10:41:08;;;;;;;15.90;5.93;;;19.80;99.90;;;;;;4748166;30;20032;-72
2022/10/17 10:43:36;;;;;;;10.57;4.55;;;20.00;99.90;;;;;;4734043;30;20241;-72
2022/10/17 10:46:14;;;;;;;9.05;5.05;;;20.00;99.90;;;;;;4735458;30;20484;-73
2022/10/17 10:48:50;;;;;;;11.25;5.13;;;20.10;99.90;;;;;;4743278;30;20068;-73
2022/10/17 10:51:21;;;;;;;9.85;5.63;;;20.10;99.90;;;;;;4732945;30;20112;-72
2022/10/17 10:54:02;;;;;;;9.90;4.50;;;20.20;99.90;;;;;;4738290;30;20445;-73
2022/10/17 10:56:40;;;;;;;7.95;4.97;;;20.30;99.90;;;;;;4744035;30;20112;-72
2022/10/17 10:59:17;;;;;;;34.90;7.63;;;20.40;99.90;;;;;;4739341;30;20043;-73
2022/10/17 11:02:01;;;;;;;17.42;5.15;;;20.40;99.90;;;;;;4738790;30;20059;-73
2022/10/17 11:04:47;;;;;;;8.05;4.55;;;20.50;99.90;;;;;;4737930;30;20061;-72
2022/10/17 11:07:19;;;;;;;11.55;5.10;;;20.50;99.90;;;;;;4733163;30;20053;-73
2022/10/17 11:10:43;;;;;;;9.88;4.55;;;20.50;99.90;;;;;;4737030;30;20032;-74
2022/10/17 11:13:23;;;;;;;11.63;4.80;;;20.50;99.90;;;;;;4682814;30;20517;-73
2022/10/17 11:16:00;;;;;;;7.85;4.35;;;20.50;99.90;;;;;;4695656;30;20049;-73
2022/10/17 11:18:47;;;;;;;9.80;4.75;;;20.60;99.90;;;;;;4695094;30;20505;-73
2022/10/17 11:21:27;;;;;;;11.02;4.57;;;20.60;99.90;;;;;;4695889;30;20501;-73
2022/10/17 11:24:04;;;;;;;7.97;4.03;;;20.60;99.90;;;;;;4695921;30;20048;-73
2022/10/17 11:26:34;;;;;;;6.43;3.97;;;20.60;99.90;;;;;;4695937;30;20089;-73
2022/10/17 11:29:05;;;;;;;7.28;4.30;;;20.60;99.90;;;;;;4695902;30;20124;-73
2022/10/17 11:31:37;;;;;;;12.23;4.63;;;20.70;99.90;;;;;;4696011;30;20547;-73
2022/10/17 11:34:09;;;;;;;9.50;5.10;;;20.80;99.90;;;;;;4695674;30;20045;-73
2022/10/17 11:36:41;;;;;;;11.05;4.38;;;20.80;99.90;;;;;;4695078;30;20103;-73
2022/10/17 11:39:19;;;;;;;8.82;3.75;;;21.00;99.90;;;;;;4695428;30;20045;-73
2022/10/17 11:42:00;;;;;;;6.60;3.80;;;20.90;99.90;;;;;;4695347;30;20053;-72
2022/10/17 11:44:35;;;;;;;8.05;4.28;;;20.90;99.90;;;;;;4694627;30;20390;-73
2022/10/17 11:47:30;;;;;;;9.40;4.75;;;21.00;99.90;;;;;;4696580;30;20048;-73
2022/10/17 11:50:10;;;;;;;9.15;4.00;;;20.90;99.90;;;;;;4736097;30;20033;-73
2022/10/17 11:52:45;;;;;;;12.40;3.97;;;20.90;99.90;;;;;;4735952;30;20116;-73
2022/10/17 11:55:23;;;;;;;7.05;4.07;;;20.90;99.90;;;;;;4736051;30;20040;-73
2022/10/17 11:58:04;;;;;;;12.23;4.45;;;21.00;99.90;;;;;;4735917;30;20041;-73
2022/10/17 12:00:37;;;;;;;12.05;4.53;;;21.00;99.90;;;;;;4734980;30;20048;-73
2022/10/17 12:03:10;;;;;;;17.90;5.47;;;20.90;99.90;;;;;;4735312;30;20063;-73
2022/10/17 12:05:40;;;;;;;8.43;4.85;;;20.90;99.90;;;;;;4735684;30;20403;-72
2022/10/17 12:08:31;;;;;;;13.82;4.88;;;20.90;99.90;;;;;;4743163;30;20055;-73
2022/10/17 12:11:13;;;;;;;14.98;5.45;;;21.00;99.90;;;;;;4737219;30;20390;-73
2022/10/17 12:13:40;;;;;;;;;;;21.00;99.90;;;;;;4735645;30;20048;-73
2022/10/17 12:16:18;;;;;;;10.95;4.88;;;21.10;99.90;;;;;;4735216;30;19949;-73
2022/10/17 12:18:49;;;;;;;13.07;5.07;;;21.00;99.90;;;;;;4734920;30;20089;-73
2022/10/17 12:21:15;;;;;;;10.52;5.10;;;21.10;99.90;;;;;;4734207;30;20041;-73
2022/10/17 12:23:51;;;;;;;8.07;4.85;;;21.10;99.90;;;;;;4723098;30;20732;-72
2022/10/17 12:26:26;;;;;;;9.00;4.25;;;21.10;99.90;;;;;;4734544;30;20445;-73
2022/10/17 12:28:52;;;;;;;6.55;4.07;;;21.10;99.90;;;;;;4733307;30;20061;-72
2022/10/17 12:31:18;;;;;;;9.25;4.43;;;21.10;99.90;;;;;;4734247;30;20032;-73
2022/10/17 12:33:49;;;;;;;9.15;4.85;;;21.10;99.90;;;;;;4733167;30;20067;-72
2022/10/17 12:36:21;;;;;;;10.00;4.40;;;21.10;99.90;;;;;;4735846;30;20053;-72
2022/10/17 12:38:51;;;;;;;17.55;4.57;;;21.10;99.90;;;;;;4735330;30;20033;-71
2022/10/17 12:41:36;;;;;;;11.43;4.75;;;21.10;99.90;;;;;;4738964;30;20369;-72
2022/10/17 12:44:21;;;;;;;10.13;4.90;;;21.10;99.90;;;;;;4738602;30;20048;-73
2022/10/17 12:47:09;;;;;;;9.25;5.07;;;21.10;99.90;;;;;;4718025;30;20408;-73
2022/10/17 12:49:51;;;;;;;9.10;4.25;;;21.10;99.90;;;;;;4730943;30;20067;-73
2022/10/17 12:52:26;;;;;;;13.23;5.20;;;21.00;99.90;;;;;;4733553;30;20029;-72
2022/10/17 12:55:02;;;;;;;11.30;4.68;;;21.00;99.90;;;;;;4733383;30;20117;-72
2022/10/17 12:57:37;;;;;;;9.63;4.40;;;21.10;99.90;;;;;;4735633;30;20040;-72
2022/10/17 13:00:15;;;;;;;13.07;5.18;;;21.10;99.90;;;;;;4733045;30;20508;-72
2022/10/17 13:02:41;;;;;;;9.13;4.90;;;21.10;99.90;;;;;;4732979;30;20454;-73